Time;durP1;ratioP1;P1;durP2;ratioP2;P2;SDS_P1;SDS_P2;PMS_P1;PMS_P2;Temp;Humidity;BMP_temperature;BMP_pressure;BME280_temperature;BME280_humidity;BME280_pressure;Samples;Min_cycle;Max_cycle;Signal;HPM_P1;HPM_P2
2021/06/06 00:01:12;;;;;;;12.00;4.95;;;;;;;;;;5113820;28;20111;-68
2021/06/06 00:03:39;;;;;;;8.20;5.30;;;;;;;;;;5114070;28;20031;-69
2021/06/06 00:06:12;;;;;;;9.95;5.20;;;;;;;;;;5113760;28;20031;-68
2021/06/06 00:08:38;;;;;;;10.77;4.80;;;;;;;;;;5113656;28;20044;-68
2021/06/06 00:11:03;;;;;;;12.38;4.93;;;;;;;;;;5113660;28;20427;-69
2021/06/06 00:13:29;;;;;;;6.72;4.50;;;;;;;;;;5113962;28;20020;-68
2021/06/06 00:15:54;;;;;;;10.88;4.78;;;;;;;;;;5114166;28;20031;-68
2021/06/06 00:18:19;;;;;;;9.85;5.00;;;;;;;;;;5114003;28;20407;-69
2021/06/06 00:20:45;;;;;;;9.27;5.07;;;;;;;;;;5113656;28;20096;-68
2021/06/06 00:23:11;;;;;;;7.10;4.32;;;;;;;;;;5113251;28;20149;-69
2021/06/06 00:25:37;;;;;;;7.53;4.45;;;;;;;;;;5107280;28;20110;-68
2021/06/06 00:28:03;;;;;;;8.98;4.50;;;;;;;;;;5113411;28;20115;-68
2021/06/06 00:30:28;;;;;;;11.27;4.78;;;;;;;;;;5113542;28;20474;-68
2021/06/06 00:32:53;;;;;;;7.07;4.47;;;;;;;;;;5113297;28;20030;-69
2021/06/06 00:35:19;;;;;;;6.80;4.43;;;;;;;;;;5106758;28;20136;-68
2021/06/06 00:37:45;;;;;;;8.52;4.15;;;;;;;;;;5103370;28;20089;-68
2021/06/06 00:40:11;;;;;;;7.28;4.30;;;;;;;;;;5100657;28;20107;-68
2021/06/06 00:42:37;;;;;;;7.07;4.32;;;;;;;;;;5113196;28;20467;-69
2021/06/06 00:45:04;;;;;;;12.02;4.28;;;;;;;;;;5102266;28;20103;-68
2021/06/06 00:47:29;;;;;;;6.10;4.00;;;;;;;;;;5113512;28;20085;-68
2021/06/06 00:49:55;;;;;;;6.13;4.13;;;;;;;;;;5109710;28;20032;-67
2021/06/06 00:52:21;;;;;;;9.40;4.55;;;;;;;;;;5105328;28;21155;-69
2021/06/06 00:54:50;;;;;;;8.43;4.50;;;;;;;;;;5101742;28;20035;-67
2021/06/06 00:57:18;;;;;;;9.38;4.10;;;;;;;;;;5095461;28;20456;-68
2021/06/06 00:59:48;;;;;;;10.00;4.78;;;;;;;;;;5102178;28;20047;-68
2021/06/06 01:02:13;;;;;;;10.52;4.53;;;;;;;;;;5108335;28;20036;-69
2021/06/06 01:04:39;;;;;;;6.93;4.13;;;;;;;;;;5104554;28;20027;-68
2021/06/06 01:07:05;;;;;;;9.90;5.22;;;;;;;;;;5100969;28;20518;-68
2021/06/06 01:09:30;;;;;;;9.32;4.25;;;;;;;;;;5109214;28;20060;-69
2021/06/06 01:11:55;;;;;;;6.45;4.30;;;;;;;;;;5108519;28;20016;-68
2021/06/06 01:14:40;;;;;;;11.90;5.20;;;;;;;;;;5102359;28;20465;-68
2021/06/06 01:17:11;;;;;;;7.90;5.00;;;;;;;;;;5101218;28;20031;-68
2021/06/06 01:19:43;;;;;;;8.38;5.20;;;;;;;;;;5108509;28;20028;-69
2021/06/06 01:22:24;;;;;;;10.25;5.40;;;;;;;;;;5110287;28;20031;-68
2021/06/06 01:24:49;;;;;;;11.10;6.57;;;;;;;;;;5100461;28;20111;-68
2021/06/06 01:27:26;;;;;;;12.52;6.03;;;;;;;;;;5111190;28;20457;-68
2021/06/06 01:30:15;;;;;;;11.95;6.40;;;;;;;;;;5107577;28;20033;-68
2021/06/06 01:32:58;;;;;;;11.05;6.35;;;;;;;;;;5104172;28;20107;-69
2021/06/06 01:35:32;;;;;;;15.50;6.95;;;;;;;;;;5109686;28;20031;-69
2021/06/06 01:38:04;;;;;;;10.23;6.00;;;;;;;;;;5108277;28;20036;-69
2021/06/06 01:40:31;;;;;;;16.73;6.50;;;;;;;;;;5100657;28;20032;-69
2021/06/06 01:42:59;;;;;;;9.40;5.53;;;;;;;;;;5113069;28;20028;-68
2021/06/06 01:45:27;;;;;;;7.90;5.25;;;;;;;;;;5103624;28;20023;-68
2021/06/06 01:47:56;;;;;;;8.57;5.95;;;;;;;;;;5105635;28;20082;-68
2021/06/06 01:50:23;;;;;;;7.68;5.20;;;;;;;;;;5111576;28;20024;-68
2021/06/06 01:52:50;;;;;;;12.65;6.28;;;;;;;;;;5114817;28;20162;-69
2021/06/06 01:55:17;;;;;;;11.02;6.13;;;;;;;;;;5116914;28;20085;-69
2021/06/06 01:57:43;;;;;;;7.68;5.70;;;;;;;;;;5116605;28;20087;-68
2021/06/06 02:00:11;;;;;;;10.50;5.85;;;;;;;;;;5116498;28;20027;-68
2021/06/06 02:02:37;;;;;;;9.02;5.55;;;;;;;;;;5116363;28;20034;-69
2021/06/06 02:05:06;;;;;;;11.15;5.40;;;;;;;;;;5116444;28;20032;-68
2021/06/06 02:07:32;;;;;;;10.27;5.38;;;;;;;;;;5116498;28;20110;-68
2021/06/06 02:10:16;;;;;;;7.90;5.38;;;;;;;;;;5116185;28;20047;-68
2021/06/06 02:12:44;;;;;;;10.48;6.20;;;;;;;;;;5116441;28;20026;-68
2021/06/06 02:15:12;;;;;;;8.23;4.50;;;;;;;;;;5116495;28;20051;-68
2021/06/06 02:17:38;;;;;;;10.40;5.72;;;;;;;;;;5116389;28;20035;-68
2021/06/06 02:20:05;;;;;;;10.00;4.97;;;;;;;;;;5116369;28;20019;-69
2021/06/06 02:22:31;;;;;;;7.90;5.10;;;;;;;;;;5116136;28;20107;-68
2021/06/06 02:24:58;;;;;;;8.70;5.90;;;;;;;;;;5116281;28;20031;-68
2021/06/06 02:27:33;;;;;;;9.93;5.40;;;;;;;;;;5116165;28;20038;-68
2021/06/06 02:30:03;;;;;;;9.73;5.88;;;;;;;;;;5116209;28;20031;-68
2021/06/06 02:32:58;;;;;;;10.38;5.93;;;;;;;;;;5116051;28;20384;-68
2021/06/06 02:35:35;;;;;;;12.05;5.30;;;;;;;;;;5025362;28;20120;-68
2021/06/06 02:38:06;;;;;;;9.18;5.72;;;;;;;;;;5115987;28;20028;-68
2021/06/06 02:40:34;;;;;;;10.50;5.57;;;;;;;;;;5115885;28;20034;-68
2021/06/06 02:43:03;;;;;;;11.55;6.13;;;;;;;;;;5115736;28;20036;-68
2021/06/06 02:45:30;;;;;;;12.98;7.63;;;;;;;;;;5115873;28;20072;-68
2021/06/06 02:47:57;;;;;;;12.82;7.28;;;;;;;;;;5115594;28;20035;-68
2021/06/06 02:50:29;;;;;;;14.82;7.47;;;;;;;;;;5115473;28;20047;-68
2021/06/06 02:53:20;;;;;;;12.73;7.93;;;;;;;;;;5115793;28;20012;-68
2021/06/06 02:55:47;;;;;;;13.85;8.43;;;;;;;;;;5110161;28;20036;-68
2021/06/06 02:58:18;;;;;;;12.93;8.15;;;;;;;;;;5112360;28;20039;-69
2021/06/06 03:00:46;;;;;;;20.98;10.32;;;;;;;;;;5095208;28;20089;-68
2021/06/06 03:03:15;;;;;;;20.13;8.50;;;;;;;;;;5095050;28;20028;-68
2021/06/06 03:05:40;;;;;;;14.55;8.55;;;;;;;;;;5095118;28;20036;-68
2021/06/06 03:08:07;;;;;;;31.85;8.52;;;;;;;;;;5094974;28;20032;-68
2021/06/06 03:10:33;;;;;;;16.70;8.65;;;;;;;;;;5094541;28;20048;-68
2021/06/06 03:13:01;;;;;;;13.23;8.70;;;;;;;;;;5095044;28;20047;-68
2021/06/06 03:15:29;;;;;;;12.68;8.40;;;;;;;;;;5094932;28;20349;-68
2021/06/06 03:17:55;;;;;;;20.83;9.73;;;;;;;;;;5094926;28;20491;-68
2021/06/06 03:20:32;;;;;;;21.00;10.80;;;;;;;;;;5094721;28;20032;-68
2021/06/06 03:22:58;;;;;;;17.15;9.20;;;;;;;;;;5094746;28;20389;-68
2021/06/06 03:25:42;;;;;;;24.52;10.52;;;;;;;;;;5094603;28;20131;-68
2021/06/06 03:28:08;;;;;;;19.88;10.38;;;;;;;;;;5093986;28;20109;-68
2021/06/06 03:30:47;;;;;;;19.90;10.05;;;;;;;;;;5094276;28;20093;-69
2021/06/06 03:33:20;;;;;;;24.45;10.07;;;;;;;;;;5094482;28;20058;-68
2021/06/06 03:35:46;;;;;;;22.80;10.57;;;;;;;;;;5094762;28;20036;-69
2021/06/06 03:38:12;;;;;;;20.60;10.25;;;;;;;;;;5094297;28;20119;-68
2021/06/06 03:40:39;;;;;;;21.67;10.40;;;;;;;;;;5094505;28;20539;-69
2021/06/06 03:43:06;;;;;;;20.27;10.50;;;;;;;;;;5094271;28;20042;-68
2021/06/06 03:45:31;;;;;;;20.95;11.10;;;;;;;;;;5094254;28;20024;-68
2021/06/06 03:47:58;;;;;;;17.88;10.48;;;;;;;;;;5093903;28;20074;-68
2021/06/06 03:50:24;;;;;;;16.77;10.85;;;;;;;;;;5093932;28;20534;-68
2021/06/06 03:52:49;;;;;;;22.50;10.60;;;;;;;;;;5094024;28;20012;-68
2021/06/06 03:55:15;;;;;;;23.30;10.63;;;;;;;;;;5094077;28;20053;-68
2021/06/06 03:57:41;;;;;;;22.02;11.52;;;;;;;;;;5094047;28;20035;-68
2021/06/06 04:00:17;;;;;;;28.48;12.95;;;;;;;;;;5113322;28;20126;-68
2021/06/06 04:02:43;;;;;;;23.73;11.80;;;;;;;;;;5114515;28;20068;-68
2021/06/06 04:05:09;;;;;;;17.20;11.13;;;;;;;;;;5114354;28;20153;-69
2021/06/06 04:07:34;;;;;;;20.75;11.48;;;;;;;;;;5114143;28;20035;-69
2021/06/06 04:10:01;;;;;;;25.33;11.45;;;;;;;;;;5114334;28;20048;-68
2021/06/06 04:12:26;;;;;;;23.38;12.15;;;;;;;;;;5114273;28;20031;-68
2021/06/06 04:14:51;;;;;;;25.05;12.77;;;;;;;;;;5113798;28;20142;-68
2021/06/06 04:17:17;;;;;;;21.52;11.65;;;;;;;;;;5114242;28;20102;-68
2021/06/06 04:19:42;;;;;;;18.77;11.98;;;;;;;;;;5114048;28;20116;-68
2021/06/06 04:22:07;;;;;;;21.52;12.57;;;;;;;;;;5114193;28;20034;-69
2021/06/06 04:24:33;;;;;;;27.50;13.98;;;;;;;;;;5113950;28;20119;-68
2021/06/06 04:26:58;;;;;;;26.88;13.02;;;;;;;;;;5113917;28;20074;-68
2021/06/06 04:29:23;;;;;;;28.58;14.48;;;;;;;;;;5113949;28;20061;-69
2021/06/06 04:31:48;;;;;;;26.05;14.30;;;;;;;;;;5113770;28;20024;-68
2021/06/06 04:34:14;;;;;;;22.08;12.10;;;;;;;;;;5113670;28;20084;-68
2021/06/06 04:36:39;;;;;;;22.67;13.18;;;;;;;;;;5113819;28;20476;-68
2021/06/06 04:39:05;;;;;;;27.63;14.52;;;;;;;;;;5113681;28;20084;-68
2021/06/06 04:41:30;;;;;;;25.33;13.43;;;;;;;;;;5113288;28;20032;-68
2021/06/06 04:43:56;;;;;;;20.05;13.35;;;;;;;;;;5113664;28;20019;-68
2021/06/06 04:46:21;;;;;;;24.65;12.68;;;;;;;;;;5113831;28;20031;-68
2021/06/06 04:48:46;;;;;;;26.85;13.32;;;;;;;;;;5113497;28;20043;-68
2021/06/06 04:51:19;;;;;;;20.45;12.48;;;;;;;;;;5113577;28;20020;-68
2021/06/06 04:53:44;;;;;;;24.58;13.25;;;;;;;;;;5113382;28;20039;-67
2021/06/06 04:56:11;;;;;;;23.23;12.52;;;;;;;;;;5113136;28;20034;-68
2021/06/06 04:58:36;;;;;;;28.33;12.57;;;;;;;;;;5106438;28;20449;-68
2021/06/06 05:01:01;;;;;;;25.58;12.45;;;;;;;;;;5093157;28;20040;-68
2021/06/06 05:03:26;;;;;;;24.02;12.48;;;;;;;;;;5093239;28;20028;-68
2021/06/06 05:05:52;;;;;;;20.42;12.48;;;;;;;;;;5093135;28;20446;-69
2021/06/06 05:08:19;;;;;;;22.85;12.15;;;;;;;;;;5093205;28;20105;-68
2021/06/06 05:10:45;;;;;;;22.73;12.55;;;;;;;;;;5092640;28;20060;-68
2021/06/06 05:13:11;;;;;;;24.58;12.23;;;;;;;;;;5093150;28;20024;-69
2021/06/06 05:15:36;;;;;;;21.67;12.13;;;;;;;;;;5093068;28;20449;-68
2021/06/06 05:18:03;;;;;;;22.75;12.50;;;;;;;;;;5092734;28;20036;-69
2021/06/06 05:20:30;;;;;;;21.92;12.73;;;;;;;;;;5092986;28;20040;-68
2021/06/06 05:22:55;;;;;;;22.63;11.68;;;;;;;;;;5092641;28;20472;-69
2021/06/06 05:25:21;;;;;;;22.55;12.68;;;;;;;;;;5093106;28;20158;-68
2021/06/06 05:27:46;;;;;;;20.73;12.07;;;;;;;;;;5093003;28;20456;-68
2021/06/06 05:30:13;;;;;;;17.52;11.65;;;;;;;;;;5092979;28;20024;-69
2021/06/06 05:32:39;;;;;;;18.85;12.60;;;;;;;;;;5092905;28;20028;-68
2021/06/06 05:35:05;;;;;;;21.58;12.10;;;;;;;;;;5092926;28;20357;-68
2021/06/06 05:37:30;;;;;;;26.48;12.68;;;;;;;;;;5092991;28;20035;-69
2021/06/06 05:39:55;;;;;;;18.92;12.32;;;;;;;;;;5092824;28;20032;-69
2021/06/06 05:42:21;;;;;;;21.92;12.63;;;;;;;;;;5093022;28;20101;-68
2021/06/06 05:44:46;;;;;;;20.33;12.65;;;;;;;;;;5092693;28;20464;-68
2021/06/06 05:47:11;;;;;;;18.52;11.15;;;;;;;;;;5093009;28;20151;-68
2021/06/06 05:49:37;;;;;;;15.95;11.35;;;;;;;;;;5092638;28;20020;-68
2021/06/06 05:52:03;;;;;;;20.08;11.48;;;;;;;;;;5094819;28;20071;-68
2021/06/06 05:54:28;;;;;;;15.52;11.20;;;;;;;;;;5096554;28;20040;-68
2021/06/06 05:56:54;;;;;;;15.70;11.27;;;;;;;;;;5096340;28;20020;-69
2021/06/06 05:59:19;;;;;;;16.42;10.93;;;;;;;;;;5109217;28;20034;-67
2021/06/06 06:01:44;;;;;;;24.17;11.68;;;;;;;;;;5116774;28;20076;-68
2021/06/06 06:04:09;;;;;;;17.38;10.65;;;;;;;;;;5116757;28;20016;-69
2021/06/06 06:06:35;;;;;;;17.17;10.73;;;;;;;;;;5116641;28;20055;-68
2021/06/06 06:09:00;;;;;;;21.10;11.23;;;;;;;;;;5116527;28;20117;-69
2021/06/06 06:11:26;;;;;;;13.48;10.18;;;;;;;;;;5115979;28;20488;-68
2021/06/06 06:13:51;;;;;;;21.90;9.98;;;;;;;;;;5116487;28;20055;-68
2021/06/06 06:16:20;;;;;;;14.13;9.10;;;;;;;;;;5116371;28;20051;-69
2021/06/06 06:18:45;;;;;;;17.65;9.38;;;;;;;;;;5116405;28;20047;-68
2021/06/06 06:21:13;;;;;;;11.45;8.55;;;;;;;;;;5116440;28;20070;-68
2021/06/06 06:23:38;;;;;;;12.32;8.25;;;;;;;;;;5116321;28;20035;-69
2021/06/06 06:26:04;;;;;;;13.73;7.82;;;;;;;;;;5116110;28;20448;-66
2021/06/06 06:28:29;;;;;;;14.02;8.65;;;;;;;;;;5116555;28;20526;-67
2021/06/06 06:30:54;;;;;;;14.80;7.90;;;;;;;;;;5115711;28;20115;-67
2021/06/06 06:33:20;;;;;;;12.77;7.80;;;;;;;;;;5115837;28;20028;-66
2021/06/06 06:35:45;;;;;;;15.25;9.27;;;;;;;;;;5116172;28;20035;-66
2021/06/06 06:38:10;;;;;;;11.73;7.97;;;;;;;;;;5115755;28;20034;-66
2021/06/06 06:40:36;;;;;;;14.60;7.70;;;;;;;;;;5115586;28;20066;-66
2021/06/06 06:43:02;;;;;;;16.17;8.77;;;;;;;;;;5115687;28;20036;-66
2021/06/06 06:45:29;;;;;;;17.75;9.50;;;;;;;;;;5115920;28;20039;-66
2021/06/06 06:48:03;;;;;;;15.23;8.65;;;;;;;;;;5115345;28;20024;-66
2021/06/06 06:50:29;;;;;;;15.82;9.20;;;;;;;;;;5115763;28;20034;-67
2021/06/06 06:52:56;;;;;;;16.27;8.82;;;;;;;;;;5115412;28;20106;-66
2021/06/06 06:55:22;;;;;;;15.30;9.13;;;;;;;;;;5115794;28;20021;-66
2021/06/06 06:57:47;;;;;;;20.17;8.95;;;;;;;;;;5115350;28;20106;-66
2021/06/06 07:00:21;;;;;;;16.50;10.00;;;;;;;;;;5115563;28;20027;-67
2021/06/06 07:02:46;;;;;;;13.88;9.32;;;;;;;;;;5114521;28;20426;-66
2021/06/06 07:05:12;;;;;;;14.18;8.70;;;;;;;;;;5115482;28;20036;-67
2021/06/06 07:07:38;;;;;;;13.85;8.73;;;;;;;;;;5115262;28;20114;-66
2021/06/06 07:10:05;;;;;;;16.95;9.80;;;;;;;;;;5115446;28;20081;-66
2021/06/06 07:12:30;;;;;;;10.85;7.50;;;;;;;;;;5115050;28;20526;-66
2021/06/06 07:14:55;;;;;;;11.35;7.60;;;;;;;;;;5115348;28;20115;-67
2021/06/06 07:17:21;;;;;;;11.13;8.20;;;;;;;;;;5115031;28;20114;-66
2021/06/06 07:19:46;;;;;;;11.50;7.80;;;;;;;;;;5115107;28;20027;-67
2021/06/06 07:22:11;;;;;;;12.60;7.88;;;;;;;;;;5115288;28;20050;-66
2021/06/06 07:24:36;;;;;;;15.30;7.75;;;;;;;;;;5115274;28;20020;-67
2021/06/06 07:27:02;;;;;;;14.15;7.80;;;;;;;;;;5114624;28;20023;-66
2021/06/06 07:29:29;;;;;;;13.63;7.22;;;;;;;;;;5115210;28;20039;-67
2021/06/06 07:31:56;;;;;;;10.40;6.82;;;;;;;;;;5114493;28;20023;-66
2021/06/06 07:34:23;;;;;;;12.52;7.25;;;;;;;;;;5114893;28;20035;-66
2021/06/06 07:36:50;;;;;;;13.43;7.47;;;;;;;;;;5107666;28;20480;-67
2021/06/06 07:39:16;;;;;;;10.45;6.72;;;;;;;;;;5108207;28;20016;-67
2021/06/06 07:41:41;;;;;;;13.55;8.55;;;;;;;;;;5104576;28;20026;-67
2021/06/06 07:44:07;;;;;;;12.68;7.13;;;;;;;;;;5105565;28;20030;-66
2021/06/06 07:46:32;;;;;;;14.52;8.57;;;;;;;;;;5104313;28;20023;-67
2021/06/06 07:48:57;;;;;;;11.13;7.90;;;;;;;;;;5098206;28;20039;-67
2021/06/06 07:51:23;;;;;;;12.63;7.30;;;;;;;;;;5095670;28;20036;-67
2021/06/06 07:53:49;;;;;;;10.45;5.97;;;;;;;;;;5093882;28;20434;-67
2021/06/06 07:56:14;;;;;;;7.78;6.05;;;;;;;;;;5093875;28;20052;-67
2021/06/06 07:58:40;;;;;;;7.95;5.15;;;;;;;;;;5108310;28;20058;-67
2021/06/06 08:01:06;;;;;;;6.63;4.57;;;;;;;;;;5114102;28;20043;-66
2021/06/06 08:03:32;;;;;;;6.57;4.90;;;;;;;;;;5114316;28;20110;-67
2021/06/06 08:05:58;;;;;;;7.28;4.25;;;;;;;;;;5094013;28;20452;-66
2021/06/06 08:08:23;;;;;;;4.55;2.75;;;;;;;;;;5091056;28;20036;-69
2021/06/06 08:10:49;;;;;;;6.00;3.22;;;;;;;;;;5093017;28;20050;-69
2021/06/06 08:13:15;;;;;;;4.15;2.97;;;;;;;;;;5093472;28;20035;-70
2021/06/06 08:15:41;;;;;;;5.90;4.05;;;;;;;;;;5093099;28;20225;-69
2021/06/06 08:18:09;;;;;;;7.28;3.65;;;;;;;;;;5093689;28;20028;-69
2021/06/06 08:20:37;;;;;;;12.50;4.68;;;;;;;;;;5111207;28;20036;-69
2021/06/06 08:23:03;;;;;;;6.97;4.40;;;;;;;;;;5113089;28;20472;-69
2021/06/06 08:25:29;;;;;;;8.02;4.65;;;;;;;;;;5099123;28;20032;-69
2021/06/06 08:27:54;;;;;;;7.80;4.60;;;;;;;;;;5094063;28;20051;-68
2021/06/06 08:30:31;;;;;;;6.40;4.25;;;;;;;;;;5113799;28;20019;-68
2021/06/06 08:32:56;;;;;;;9.02;4.60;;;;;;;;;;5092024;28;20480;-68
2021/06/06 08:35:21;;;;;;;12.30;5.18;;;;;;;;;;5099790;28;20032;-69
2021/06/06 08:37:47;;;;;;;7.25;4.70;;;;;;;;;;5090349;28;20024;-68
2021/06/06 08:40:14;;;;;;;8.60;4.53;;;;;;;;;;5099783;28;20499;-68
2021/06/06 08:42:41;;;;;;;3.50;2.38;;;;;;;;;;5098088;28;20112;-68
2021/06/06 08:45:26;;;;;;;6.25;4.00;;;;;;;;;;5096818;28;20034;-68
2021/06/06 08:47:51;;;;;;;2.90;1.40;;;;;;;;;;5089905;28;20043;-68
2021/06/06 08:50:19;;;;;;;1.75;1.10;;;;;;;;;;5110080;28;20483;-68
2021/06/06 08:52:57;;;;;;;1.95;1.10;;;;;;;;;;5109078;28;20028;-67
2021/06/06 08:55:28;;;;;;;1.63;0.93;;;;;;;;;;5103101;28;20032;-68
2021/06/06 08:58:16;;;;;;;1.63;0.90;;;;;;;;;;5108882;28;20496;-69
2021/06/06 09:00:44;;;;;;;0.50;0.50;;;;;;;;;;5099924;28;20492;-68
2021/06/06 09:03:12;;;;;;;0.50;0.50;;;;;;;;;;5101936;28;20027;-69
2021/06/06 09:05:40;;;;;;;2.08;0.50;;;;;;;;;;5108372;28;20024;-68
2021/06/06 09:08:08;;;;;;;0.63;0.63;;;;;;;;;;5109611;28;20062;-68
2021/06/06 09:10:35;;;;;;;4.05;0.40;;;;;;;;;;5102659;28;20048;-68
2021/06/06 09:13:03;;;;;;;0.47;0.47;;;;;;;;;;5109360;28;20023;-68
2021/06/06 09:15:29;;;;;;;0.52;0.40;;;;;;;;;;5102446;28;20035;-69
2021/06/06 09:17:58;;;;;;;4.20;0.50;;;;;;;;;;5092707;28;20460;-69
2021/06/06 09:20:36;;;;;;;1.38;0.40;;;;;;;;;;5093313;28;20060;-66
2021/06/06 09:23:07;;;;;;;0.40;0.40;;;;;;;;;;5101332;28;20035;-66
2021/06/06 09:25:34;;;;;;;1.52;0.40;;;;;;;;;;5106904;28;20553;-67
2021/06/06 09:28:01;;;;;;;0.40;0.40;;;;;;;;;;5095632;28;20031;-66
2021/06/06 09:30:26;;;;;;;0.40;0.40;;;;;;;;;;5105789;28;20502;-66
2021/06/06 09:33:02;;;;;;;4.30;0.57;;;;;;;;;;5102794;28;20548;-66
2021/06/06 09:35:30;;;;;;;0.40;0.40;;;;;;;;;;5098706;28;20040;-69
2021/06/06 09:38:11;;;;;;;2.50;0.43;;;;;;;;;;5099965;28;20035;-69
2021/06/06 09:40:38;;;;;;;0.30;0.30;;;;;;;;;;5113372;28;20028;-68
2021/06/06 09:43:03;;;;;;;2.08;0.40;;;;;;;;;;5106238;28;20522;-69
2021/06/06 09:45:32;;;;;;;0.50;0.50;;;;;;;;;;5109135;28;20059;-70
2021/06/06 09:47:59;;;;;;;0.88;0.40;;;;;;;;;;5093131;28;20039;-68
2021/06/06 09:50:29;;;;;;;0.60;0.60;;;;;;;;;;5096920;28;20476;-68
2021/06/06 09:52:54;;;;;;;0.40;0.40;;;;;;;;;;5100189;28;20052;-69
2021/06/06 09:55:20;;;;;;;0.40;0.40;;;;;;;;;;5105025;28;20058;-67
2021/06/06 09:57:45;;;;;;;1.45;0.30;;;;;;;;;;5093858;28;20035;-66
2021/06/06 10:00:22;;;;;;;2.70;0.25;;;;;;;;;;5098230;28;20024;-69
2021/06/06 10:02:55;;;;;;;1.10;0.25;;;;;;;;;;5112720;28;20030;-68
2021/06/06 10:05:30;;;;;;;0.65;0.20;;;;;;;;;;5101437;28;20039;-69
2021/06/06 10:08:15;;;;;;;0.20;0.20;;;;;;;;;;5110951;28;20077;-69
2021/06/06 10:10:43;;;;;;;0.32;0.20;;;;;;;;;;5093486;28;20103;-69
2021/06/06 10:13:11;;;;;;;0.93;0.30;;;;;;;;;;5112409;28;20028;-69
2021/06/06 10:15:45;;;;;;;0.50;0.30;;;;;;;;;;5104181;28;20031;-69
2021/06/06 10:18:17;;;;;;;2.47;0.22;;;;;;;;;;5115419;28;20032;-69
2021/06/06 10:20:48;;;;;;;0.32;0.30;;;;;;;;;;5116212;28;20036;-70
2021/06/06 10:23:29;;;;;;;0.30;0.30;;;;;;;;;;5107028;28;20110;-69
2021/06/06 10:25:59;;;;;;;0.55;0.30;;;;;;;;;;5111258;28;20038;-68
2021/06/06 10:28:38;;;;;;;2.15;0.30;;;;;;;;;;5105403;28;20835;-68
2021/06/06 10:31:13;;;;;;;0.35;0.30;;;;;;;;;;5107791;28;20047;-68
2021/06/06 10:33:49;;;;;;;1.75;0.50;;;;;;;;;;5106120;28;20027;-69
2021/06/06 10:36:16;;;;;;;2.63;0.40;;;;;;;;;;5102212;28;20115;-68
2021/06/06 10:38:42;;;;;;;1.95;0.50;;;;;;;;;;5110943;28;20039;-69
2021/06/06 10:41:12;;;;;;;0.85;0.43;;;;;;;;;;5097252;28;20031;-68
2021/06/06 10:43:38;;;;;;;0.55;0.50;;;;;;;;;;5111551;28;20027;-69
2021/06/06 10:46:13;;;;;;;0.38;0.38;;;;;;;;;;5107423;28;20088;-67
2021/06/06 10:48:50;;;;;;;0.45;0.30;;;;;;;;;;5105013;28;20047;-69
2021/06/06 10:51:36;;;;;;;0.60;0.50;;;;;;;;;;5111753;28;20371;-68
2021/06/06 10:54:05;;;;;;;0.80;0.40;;;;;;;;;;5112153;28;20518;-68
2021/06/06 10:56:35;;;;;;;0.95;0.50;;;;;;;;;;5106583;28;20452;-68
2021/06/06 10:59:04;;;;;;;1.23;0.50;;;;;;;;;;5080961;28;20036;-70
2021/06/06 11:01:41;;;;;;;1.02;0.60;;;;;;;;;;5103274;28;20747;-68
2021/06/06 11:04:12;;;;;;;3.15;0.60;;;;;;;;;;5101291;28;20106;-69
2021/06/06 11:06:39;;;;;;;0.47;0.30;;;;;;;;;;5097675;28;20059;-69
2021/06/06 11:09:06;;;;;;;0.60;0.38;;;;;;;;;;5108476;28;20114;-70
2021/06/06 11:11:36;;;;;;;2.28;0.60;;;;;;;;;;5106720;28;20488;-69
2021/06/06 11:14:07;;;;;;;0.88;0.43;;;;;;;;;;5094916;28;20125;-67
2021/06/06 11:16:40;;;;;;;1.15;0.47;;;;;;;;;;5098654;28;20106;-67
2021/06/06 11:19:28;;;;;;;0.60;0.52;;;;;;;;;;5107678;28;20131;-67
2021/06/06 11:21:53;;;;;;;0.85;0.40;;;;;;;;;;5101967;28;20056;-66
2021/06/06 11:24:38;;;;;;;0.30;0.30;;;;;;;;;;5098644;28;20063;-66
2021/06/06 11:27:06;;;;;;;0.50;0.32;;;;;;;;;;5104585;28;20523;-67
2021/06/06 11:29:43;;;;;;;0.20;0.20;;;;;;;;;;5108808;28;20031;-67
2021/06/06 11:32:12;;;;;;;2.13;0.30;;;;;;;;;;5094860;28;20108;-69
2021/06/06 11:34:43;;;;;;;2.38;0.30;;;;;;;;;;5110657;28;20388;-68
2021/06/06 11:37:11;;;;;;;0.32;0.30;;;;;;;;;;5105458;28;20055;-68
2021/06/06 11:39:45;;;;;;;2.80;0.35;;;;;;;;;;5108780;28;20422;-69
2021/06/06 11:42:23;;;;;;;0.43;0.22;;;;;;;;;;5109712;28;20019;-69
2021/06/06 11:44:53;;;;;;;0.20;0.20;;;;;;;;;;5100154;28;20518;-68
2021/06/06 11:47:28;;;;;;;0.30;0.30;;;;;;;;;;5093383;28;20494;-69
2021/06/06 11:50:01;;;;;;;0.70;0.40;;;;;;;;;;5107937;28;20512;-69
2021/06/06 11:52:26;;;;;;;0.68;0.40;;;;;;;;;;5108276;28;20024;-69
2021/06/06 11:54:59;;;;;;;0.90;0.50;;;;;;;;;;5108248;28;20037;-69
2021/06/06 11:57:32;;;;;;;0.60;0.60;;;;;;;;;;5090866;28;20109;-69
2021/06/06 12:00:02;;;;;;;0.60;0.50;;;;;;;;;;5109069;28;20088;-69
2021/06/06 12:02:29;;;;;;;1.13;0.40;;;;;;;;;;5109219;28;20092;-70
2021/06/06 12:04:57;;;;;;;0.30;0.30;;;;;;;;;;5096572;28;20026;-69
2021/06/06 12:07:30;;;;;;;0.40;0.40;;;;;;;;;;5110066;28;20093;-69
2021/06/06 12:09:57;;;;;;;4.90;3.17;;;;;;;;;;5109737;28;20466;-69
2021/06/06 12:12:32;;;;;;;1.58;1.00;;;;;;;;;;5107141;28;20105;-69
2021/06/06 12:15:07;;;;;;;0.98;0.70;;;;;;;;;;5091278;28;20053;-69
2021/06/06 12:17:32;;;;;;;1.23;0.43;;;;;;;;;;5103694;28;20089;-69
2021/06/06 12:19:59;;;;;;;3.08;1.67;;;;;;;;;;5093683;28;20617;-68
2021/06/06 12:22:35;;;;;;;1.88;1.27;;;;;;;;;;5100854;28;20049;-69
2021/06/06 12:25:07;;;;;;;6.72;1.63;;;;;;;;;;5093431;28;20059;-68
2021/06/06 12:27:34;;;;;;;3.40;1.00;;;;;;;;;;5111797;28;20309;-69
2021/06/06 12:30:04;;;;;;;1.92;1.08;;;;;;;;;;5113646;28;20023;-69
2021/06/06 12:32:31;;;;;;;4.15;1.50;;;;;;;;;;5099455;28;20069;-69
2021/06/06 12:35:00;;;;;;;2.88;1.60;;;;;;;;;;5105633;28;20114;-69
2021/06/06 12:37:28;;;;;;;4.10;1.83;;;;;;;;;;5102857;28;20019;-69
2021/06/06 12:39:55;;;;;;;3.17;1.70;;;;;;;;;;5109101;28;20039;-69
2021/06/06 12:42:22;;;;;;;2.33;1.30;;;;;;;;;;5108546;28;20058;-69
2021/06/06 12:44:48;;;;;;;1.60;1.17;;;;;;;;;;5096530;28;20016;-68
2021/06/06 12:47:23;;;;;;;2.92;1.60;;;;;;;;;;5098305;28;20044;-69
2021/06/06 12:49:51;;;;;;;4.50;1.50;;;;;;;;;;5085676;28;20053;-69
2021/06/06 12:52:20;;;;;;;3.10;1.65;;;;;;;;;;5092367;28;20028;-69
2021/06/06 12:54:46;;;;;;;1.67;1.35;;;;;;;;;;5109865;28;20479;-69
2021/06/06 12:57:24;;;;;;;3.25;1.30;;;;;;;;;;5100731;28;20068;-69
2021/06/06 12:59:50;;;;;;;2.00;1.40;;;;;;;;;;5100198;28;20036;-69
2021/06/06 13:02:20;;;;;;;1.90;1.30;;;;;;;;;;5109407;28;20092;-69
2021/06/06 13:04:46;;;;;;;3.35;1.10;;;;;;;;;;5090182;28;20439;-69
2021/06/06 13:07:23;;;;;;;1.80;1.23;;;;;;;;;;5112303;28;20467;-69
2021/06/06 13:09:49;;;;;;;4.25;1.38;;;;;;;;;;5113160;28;20104;-69
2021/06/06 13:12:30;;;;;;;1.80;1.00;;;;;;;;;;5111681;28;20031;-69
2021/06/06 13:15:04;;;;;;;3.00;1.17;;;;;;;;;;5111966;28;20031;-69
2021/06/06 13:17:45;;;;;;;1.35;0.95;;;;;;;;;;5101458;28;20040;-69
2021/06/06 13:20:10;;;;;;;1.70;0.90;;;;;;;;;;5109740;28;20085;-68
2021/06/06 13:22:36;;;;;;;1.55;1.13;;;;;;;;;;5097630;28;20368;-69
2021/06/06 13:25:09;;;;;;;1.42;1.05;;;;;;;;;;5106305;28;20036;-70
2021/06/06 13:27:38;;;;;;;3.42;1.10;;;;;;;;;;5104460;28;20086;-68
2021/06/06 13:30:13;;;;;;;2.92;1.20;;;;;;;;;;5113647;28;20032;-69
2021/06/06 13:32:38;;;;;;;;;;;;;;;;;;5097900;28;20035;-69
2021/06/06 13:35:05;;;;;;;1.40;1.00;;;;;;;;;;5105031;28;19912;-69
2021/06/06 13:37:31;;;;;;;1.48;0.77;;;;;;;;;;5098093;28;20119;-70
2021/06/06 13:40:04;;;;;;;5.57;1.60;;;;;;;;;;5108443;28;20102;-70
2021/06/06 13:42:29;;;;;;;2.75;0.90;;;;;;;;;;5110491;28;20050;-68
2021/06/06 13:44:55;;;;;;;1.70;1.15;;;;;;;;;;5099753;28;20464;-69
2021/06/06 13:47:24;;;;;;;3.40;1.10;;;;;;;;;;5102929;28;20061;-69
2021/06/06 13:49:49;;;;;;;1.98;1.00;;;;;;;;;;5106879;28;20080;-66
2021/06/06 13:52:15;;;;;;;3.78;1.35;;;;;;;;;;5096216;28;20028;-66
2021/06/06 13:54:41;;;;;;;3.05;1.73;;;;;;;;;;5090032;28;20020;-68
2021/06/06 13:57:06;;;;;;;4.35;1.52;;;;;;;;;;5091335;28;20024;-67
2021/06/06 13:59:34;;;;;;;1.77;1.30;;;;;;;;;;5091427;28;20107;-69
2021/06/06 14:01:59;;;;;;;2.78;1.65;;;;;;;;;;5092625;28;20073;-69
2021/06/06 14:04:25;;;;;;;1.85;1.50;;;;;;;;;;5109225;28;20035;-69
2021/06/06 14:06:50;;;;;;;5.55;1.60;;;;;;;;;;5106822;28;20036;-69
2021/06/06 14:09:18;;;;;;;2.78;1.55;;;;;;;;;;5102091;28;20115;-69
2021/06/06 14:11:47;;;;;;;1.85;1.30;;;;;;;;;;5112245;28;20127;-69
2021/06/06 14:14:13;;;;;;;2.08;1.33;;;;;;;;;;5095558;28;20066;-68
2021/06/06 14:16:39;;;;;;;2.03;1.55;;;;;;;;;;5098753;28;20023;-69
2021/06/06 14:19:06;;;;;;;1.38;1.23;;;;;;;;;;5103922;28;20111;-69
2021/06/06 14:21:32;;;;;;;3.95;1.20;;;;;;;;;;5103645;28;20043;-69
2021/06/06 14:24:01;;;;;;;2.88;2.10;;;;;;;;;;5096470;28;20024;-69
2021/06/06 14:26:28;;;;;;;2.33;1.27;;;;;;;;;;5110562;28;20031;-69
2021/06/06 14:28:54;;;;;;;1.45;1.10;;;;;;;;;;5110634;28;20043;-69
2021/06/06 14:31:20;;;;;;;1.70;1.20;;;;;;;;;;5111874;28;20019;-69
2021/06/06 14:33:46;;;;;;;2.70;1.33;;;;;;;;;;5105800;28;20095;-69
2021/06/06 14:36:12;;;;;;;3.17;1.40;;;;;;;;;;5114610;28;20030;-70
2021/06/06 14:38:37;;;;;;;2.22;1.30;;;;;;;;;;5113292;28;20364;-69
2021/06/06 14:41:04;;;;;;;2.30;1.13;;;;;;;;;;5099366;28;20415;-68
2021/06/06 14:43:29;;;;;;;2.08;1.30;;;;;;;;;;5103718;28;20491;-69